Terminal Aerodrome Forecast
Issued by NWS

Home | Current Version | Previous Version | Text Only | Print | Product List | Glossary On
Versions: 1 2 3 4 5 6 7 8 9 10 11 12 13 14
000
FTUS45 KVEF 021728
TAFEED
TAF
KEED 021728Z 0218/0318 17009KT P6SM SCT250
     FM021900 19015G23KT P6SM SCT250
     FM030200 19012KT P6SM SCT250
     FM030600 24008KT P6SM SCT250
     FM031500 17090KT P6SM SCT250=

USA.gov is the U.S. government's official web portal to all federal, state and local government web resources and services.